sensor_id;sensor_type;location;lat;lon;timestamp;pressure;altitude;pressure_sealevel;temperature;humidity
45323;BME280;31382;50.200;8.674;2024-02-14T00:03:00;100696.84;;;9.21;60.13
45323;BME280;31382;50.200;8.674;2024-02-14T00:08:03;100687.59;;;9.16;60.62
45323;BME280;31382;50.200;8.674;2024-02-14T00:13:06;100695.19;;;9.20;60.54
45323;BME280;31382;50.200;8.674;2024-02-14T00:18:09;100697.66;;;9.13;60.64
45323;BME280;31382;50.200;8.674;2024-02-14T00:23:11;100693.59;;;9.09;60.61
45323;BME280;31382;50.200;8.674;2024-02-14T00:28:12;100696.63;;;9.06;60.60
45323;BME280;31382;50.200;8.674;2024-02-14T00:33:14;100692.97;;;9.16;60.46
45323;BME280;31382;50.200;8.674;2024-02-14T00:38:16;100685.56;;;9.09;60.63
45323;BME280;31382;50.200;8.674;2024-02-14T00:43:18;100685.56;;;9.09;60.90
45323;BME280;31382;50.200;8.674;2024-02-14T00:48:20;100685.06;;;8.88;61.29
45323;BME280;31382;50.200;8.674;2024-02-14T00:53:23;100675.66;;;8.84;61.33
45323;BME280;31382;50.200;8.674;2024-02-14T00:58:25;100668.00;;;8.89;61.37
45323;BME280;31382;50.200;8.674;2024-02-14T01:03:27;100666.88;;;8.73;61.76
45323;BME280;31382;50.200;8.674;2024-02-14T01:08:28;100659.91;;;8.63;62.30
45323;BME280;31382;50.200;8.674;2024-02-14T01:13:30;100659.41;;;8.59;62.45
45323;BME280;31382;50.200;8.674;2024-02-14T01:18:31;100648.84;;;8.58;62.48
45323;BME280;31382;50.200;8.674;2024-02-14T01:23:33;100654.97;;;8.50;62.51
45323;BME280;31382;50.200;8.674;2024-02-14T01:28:35;100642.63;;;8.39;63.28
45323;BME280;31382;50.200;8.674;2024-02-14T01:33:38;100644.25;;;8.32;63.16
45323;BME280;31382;50.200;8.674;2024-02-14T01:38:40;100657.94;;;8.29;63.67
45323;BME280;31382;50.200;8.674;2024-02-14T01:43:41;100655.56;;;8.26;63.95
45323;BME280;31382;50.200;8.674;2024-02-14T01:48:43;100647.06;;;8.30;63.62
45323;BME280;31382;50.200;8.674;2024-02-14T01:53:45;100647.22;;;8.29;63.79
45323;BME280;31382;50.200;8.674;2024-02-14T01:58:47;100643.09;;;8.34;63.71
45323;BME280;31382;50.200;8.674;2024-02-14T02:03:48;100627.69;;;8.37;63.70
45323;BME280;31382;50.200;8.674;2024-02-14T02:08:50;100624.81;;;8.48;63.81
45323;BME280;31382;50.200;8.674;2024-02-14T02:13:52;100615.41;;;8.44;64.06
45323;BME280;31382;50.200;8.674;2024-02-14T02:18:54;100624.50;;;8.51;64.08
45323;BME280;31382;50.200;8.674;2024-02-14T02:23:58;100609.97;;;8.53;63.97
45323;BME280;31382;50.200;8.674;2024-02-14T02:29:00;100606.53;;;8.43;64.04
45323;BME280;31382;50.200;8.674;2024-02-14T02:34:01;100610.06;;;8.44;64.46
45323;BME280;31382;50.200;8.674;2024-02-14T02:39:04;100610.75;;;8.46;64.54
45323;BME280;31382;50.200;8.674;2024-02-14T02:44:06;100608.25;;;8.52;64.30
45323;BME280;31382;50.200;8.674;2024-02-14T02:49:08;100612.53;;;8.63;64.28
45323;BME280;31382;50.200;8.674;2024-02-14T02:54:10;100609.38;;;8.68;64.13
45323;BME280;31382;50.200;8.674;2024-02-14T02:59:13;100618.44;;;8.67;64.27
45323;BME280;31382;50.200;8.674;2024-02-14T03:04:15;100623.47;;;8.70;64.19
45323;BME280;31382;50.200;8.674;2024-02-14T03:09:16;100611.75;;;8.71;64.60
45323;BME280;31382;50.200;8.674;2024-02-14T03:14:19;100614.25;;;8.72;64.75
45323;BME280;31382;50.200;8.674;2024-02-14T03:19:21;100614.78;;;8.76;64.42
45323;BME280;31382;50.200;8.674;2024-02-14T03:24:23;100600.97;;;8.89;64.20
45323;BME280;31382;50.200;8.674;2024-02-14T03:29:26;100602.19;;;8.95;64.24
45323;BME280;31382;50.200;8.674;2024-02-14T03:34:28;100610.28;;;9.03;64.35
45323;BME280;31382;50.200;8.674;2024-02-14T03:39:31;100621.88;;;9.11;64.01
45323;BME280;31382;50.200;8.674;2024-02-14T03:44:33;100621.97;;;9.02;64.31
45323;BME280;31382;50.200;8.674;2024-02-14T03:49:35;100627.28;;;9.20;63.74
45323;BME280;31382;50.200;8.674;2024-02-14T03:54:37;100626.16;;;9.30;63.59
45323;BME280;31382;50.200;8.674;2024-02-14T03:59:39;100612.09;;;9.37;63.34
45323;BME280;31382;50.200;8.674;2024-02-14T04:04:41;100614.09;;;9.35;63.82
45323;BME280;31382;50.200;8.674;2024-02-14T04:09:43;100627.19;;;9.38;63.88
45323;BME280;31382;50.200;8.674;2024-02-14T04:14:44;100609.84;;;9.24;64.03
45323;BME280;31382;50.200;8.674;2024-02-14T04:19:46;100618.09;;;9.22;64.18
45323;BME280;31382;50.200;8.674;2024-02-14T04:24:47;100614.72;;;9.20;64.41
45323;BME280;31382;50.200;8.674;2024-02-14T04:29:49;100612.53;;;9.24;64.45
45323;BME280;31382;50.200;8.674;2024-02-14T04:34:51;100621.44;;;9.24;64.35
45323;BME280;31382;50.200;8.674;2024-02-14T04:39:53;100613.88;;;9.20;64.21
45323;BME280;31382;50.200;8.674;2024-02-14T04:44:54;100625.91;;;9.16;64.67
45323;BME280;31382;50.200;8.674;2024-02-14T04:49:56;100626.84;;;9.32;63.86
45323;BME280;31382;50.200;8.674;2024-02-14T04:54:57;100625.00;;;9.33;64.04
45323;BME280;31382;50.200;8.674;2024-02-14T04:59:59;100625.81;;;9.33;64.18
45323;BME280;31382;50.200;8.674;2024-02-14T05:05:00;100625.53;;;9.37;64.23
45323;BME280;31382;50.200;8.674;2024-02-14T05:10:03;100638.94;;;9.37;64.17
45323;BME280;31382;50.200;8.674;2024-02-14T05:15:05;100631.88;;;9.36;63.92
45323;BME280;31382;50.200;8.674;2024-02-14T05:20:08;100630.06;;;9.36;64.18
45323;BME280;31382;50.200;8.674;2024-02-14T05:25:10;100626.84;;;9.32;64.11
45323;BME280;31382;50.200;8.674;2024-02-14T05:30:15;100613.44;;;9.32;64.56
45323;BME280;31382;50.200;8.674;2024-02-14T05:35:17;100616.19;;;9.15;64.86
45323;BME280;31382;50.200;8.674;2024-02-14T05:40:18;100620.81;;;9.04;65.13
45323;BME280;31382;50.200;8.674;2024-02-14T05:45:20;100632.19;;;8.98;65.34
45323;BME280;31382;50.200;8.674;2024-02-14T05:50:22;100623.84;;;9.01;65.18
45323;BME280;31382;50.200;8.674;2024-02-14T05:55:24;100631.03;;;9.01;65.12
45323;BME280;31382;50.200;8.674;2024-02-14T06:00:26;100630.50;;;8.97;65.28
45323;BME280;31382;50.200;8.674;2024-02-14T06:05:30;100620.47;;;8.99;65.71
45323;BME280;31382;50.200;8.674;2024-02-14T06:10:33;100629.19;;;9.01;65.49
45323;BME280;31382;50.200;8.674;2024-02-14T06:15:36;100628.94;;;9.12;65.28
45323;BME280;31382;50.200;8.674;2024-02-14T06:20:37;100643.28;;;9.03;66.11
45323;BME280;31382;50.200;8.674;2024-02-14T06:25:41;100656.16;;;9.00;65.92
45323;BME280;31382;50.200;8.674;2024-02-14T06:30:43;100670.34;;;8.92;66.24
45323;BME280;31382;50.200;8.674;2024-02-14T06:35:48;100657.78;;;8.92;66.26
45323;BME280;31382;50.200;8.674;2024-02-14T06:40:50;100646.50;;;9.07;65.93
45323;BME280;31382;50.200;8.674;2024-02-14T06:45:52;100660.25;;;9.12;65.85
45323;BME280;31382;50.200;8.674;2024-02-14T06:50:54;100668.69;;;9.17;65.86
45323;BME280;31382;50.200;8.674;2024-02-14T06:55:58;100673.72;;;9.20;65.70
45323;BME280;31382;50.200;8.674;2024-02-14T07:01:03;100694.84;;;9.23;66.02
45323;BME280;31382;50.200;8.674;2024-02-14T07:06:06;100687.19;;;9.28;65.79
45323;BME280;31382;50.200;8.674;2024-02-14T07:11:09;100691.41;;;9.39;65.62
45323;BME280;31382;50.200;8.674;2024-02-14T07:16:11;100687.09;;;9.46;65.51
45323;BME280;31382;50.200;8.674;2024-02-14T07:21:13;100691.69;;;9.54;65.71
45323;BME280;31382;50.200;8.674;2024-02-14T07:26:15;100672.09;;;9.70;65.61
45323;BME280;31382;50.200;8.674;2024-02-14T07:31:18;100667.94;;;9.76;65.51
45323;BME280;31382;50.200;8.674;2024-02-14T07:36:20;100672.31;;;9.93;65.12
45323;BME280;31382;50.200;8.674;2024-02-14T07:41:22;100688.31;;;10.03;65.63
45323;BME280;31382;50.200;8.674;2024-02-14T07:46:24;100678.06;;;10.06;65.37
45323;BME280;31382;50.200;8.674;2024-02-14T07:51:27;100686.00;;;10.16;65.40
45323;BME280;31382;50.200;8.674;2024-02-14T07:56:30;100686.16;;;10.15;65.76
45323;BME280;31382;50.200;8.674;2024-02-14T08:01:32;100698.28;;;10.27;65.54
45323;BME280;31382;50.200;8.674;2024-02-14T08:06:34;100700.66;;;10.38;65.55
45323;BME280;31382;50.200;8.674;2024-02-14T08:11:36;100700.34;;;10.41;65.36
45323;BME280;31382;50.200;8.674;2024-02-14T08:16:37;100694.47;;;10.46;65.22
45323;BME280;31382;50.200;8.674;2024-02-14T08:21:39;100679.19;;;10.55;65.19
45323;BME280;31382;50.200;8.674;2024-02-14T08:26:40;100682.88;;;10.62;65.61
45323;BME280;31382;50.200;8.674;2024-02-14T08:31:42;100687.75;;;10.66;65.42
45323;BME280;31382;50.200;8.674;2024-02-14T08:36:44;100701.53;;;10.63;65.60
45323;BME280;31382;50.200;8.674;2024-02-14T08:41:45;100697.84;;;10.73;65.71
45323;BME280;31382;50.200;8.674;2024-02-14T08:46:48;100703.03;;;10.74;65.80
45323;BME280;31382;50.200;8.674;2024-02-14T08:51:50;100700.00;;;10.94;65.44
45323;BME280;31382;50.200;8.674;2024-02-14T08:56:51;100697.66;;;10.99;65.18
45323;BME280;31382;50.200;8.674;2024-02-14T09:01:57;100706.91;;;10.96;65.30
45323;BME280;31382;50.200;8.674;2024-02-14T09:06:58;100719.50;;;11.12;65.44
45323;BME280;31382;50.200;8.674;2024-02-14T09:12:00;100723.53;;;11.00;65.66
45323;BME280;31382;50.200;8.674;2024-02-14T09:17:04;100733.63;;;11.06;66.05
45323;BME280;31382;50.200;8.674;2024-02-14T09:22:06;100720.31;;;11.13;65.75
45323;BME280;31382;50.200;8.674;2024-02-14T09:27:08;100724.34;;;11.25;65.67
45323;BME280;31382;50.200;8.674;2024-02-14T09:32:09;100716.44;;;11.31;65.62
45323;BME280;31382;50.200;8.674;2024-02-14T09:37:10;100711.81;;;11.48;65.58
45323;BME280;31382;50.200;8.674;2024-02-14T09:42:13;100712.66;;;11.49;65.85
45323;BME280;31382;50.200;8.674;2024-02-14T09:47:17;100721.72;;;11.56;65.91
45323;BME280;31382;50.200;8.674;2024-02-14T09:52:19;100722.06;;;11.61;66.06
45323;BME280;31382;50.200;8.674;2024-02-14T09:57:22;100723.69;;;11.70;65.86
45323;BME280;31382;50.200;8.674;2024-02-14T10:02:24;100723.94;;;11.52;66.59
45323;BME280;31382;50.200;8.674;2024-02-14T10:07:26;100731.16;;;11.52;66.81
45323;BME280;31382;50.200;8.674;2024-02-14T10:12:28;100733.16;;;11.58;65.96
45323;BME280;31382;50.200;8.674;2024-02-14T10:17:33;100731.44;;;11.74;66.12
45323;BME280;31382;50.200;8.674;2024-02-14T10:22:38;100742.19;;;11.82;66.03
45323;BME280;31382;50.200;8.674;2024-02-14T10:27:40;100734.50;;;12.10;65.73
45323;BME280;31382;50.200;8.674;2024-02-14T10:32:42;100738.78;;;12.27;65.67
45323;BME280;31382;50.200;8.674;2024-02-14T10:37:49;100750.66;;;12.41;65.54
45323;BME280;31382;50.200;8.674;2024-02-14T10:42:51;100755.88;;;12.43;65.35
45323;BME280;31382;50.200;8.674;2024-02-14T10:47:56;100768.34;;;12.44;65.41
45323;BME280;31382;50.200;8.674;2024-02-14T10:53:00;100773.22;;;12.48;65.34
45323;BME280;31382;50.200;8.674;2024-02-14T10:58:03;100765.50;;;12.37;65.14
45323;BME280;31382;50.200;8.674;2024-02-14T11:03:06;100758.25;;;12.38;65.22
45323;BME280;31382;50.200;8.674;2024-02-14T11:08:08;100760.22;;;12.52;65.03
45323;BME280;31382;50.200;8.674;2024-02-14T11:13:14;100763.88;;;12.82;64.50
45323;BME280;31382;50.200;8.674;2024-02-14T11:18:25;100770.22;;;12.89;64.63
45323;BME280;31382;50.200;8.674;2024-02-14T11:23:30;100747.09;;;13.10;64.23
45323;BME280;31382;50.200;8.674;2024-02-14T11:28:36;100748.59;;;13.13;63.99
45323;BME280;31382;50.200;8.674;2024-02-14T11:33:38;100741.06;;;13.08;64.34
45323;BME280;31382;50.200;8.674;2024-02-14T11:38:40;100736.78;;;13.14;64.22
45323;BME280;31382;50.200;8.674;2024-02-14T11:43:51;100721.34;;;13.07;64.08
45323;BME280;31382;50.200;8.674;2024-02-14T11:48:52;100730.19;;;13.16;64.12
45323;BME280;31382;50.200;8.674;2024-02-14T11:53:54;100728.97;;;13.19;64.01
45323;BME280;31382;50.200;8.674;2024-02-14T11:58:57;100740.41;;;13.21;64.18
45323;BME280;31382;50.200;8.674;2024-02-14T12:04:00;100733.34;;;13.20;64.18
45323;BME280;31382;50.200;8.674;2024-02-14T12:09:11;100740.00;;;13.09;64.28
45323;BME280;31382;50.200;8.674;2024-02-14T12:14:15;100743.38;;;13.11;64.30
45323;BME280;31382;50.200;8.674;2024-02-14T12:19:16;100741.16;;;13.15;64.18
45323;BME280;31382;50.200;8.674;2024-02-14T12:24:19;100735.88;;;13.21;64.17
45323;BME280;31382;50.200;8.674;2024-02-14T12:29:23;100737.84;;;13.27;64.08
45323;BME280;31382;50.200;8.674;2024-02-14T12:34:27;100735.13;;;13.27;64.20
45323;BME280;31382;50.200;8.674;2024-02-14T12:39:30;100736.69;;;13.22;64.32
45323;BME280;31382;50.200;8.674;2024-02-14T12:44:32;100742.09;;;13.22;64.12
45323;BME280;31382;50.200;8.674;2024-02-14T12:49:34;100734.75;;;13.16;64.38
45323;BME280;31382;50.200;8.674;2024-02-14T12:54:35;100744.41;;;13.25;64.31
45323;BME280;31382;50.200;8.674;2024-02-14T12:59:37;100733.03;;;13.38;63.97
45323;BME280;31382;50.200;8.674;2024-02-14T13:04:38;100742.09;;;13.22;64.81
45323;BME280;31382;50.200;8.674;2024-02-14T13:09:40;100735.66;;;13.23;64.52
45323;BME280;31382;50.200;8.674;2024-02-14T13:14:42;100725.34;;;13.26;64.50
45323;BME280;31382;50.200;8.674;2024-02-14T13:19:45;100714.88;;;13.32;64.74
45323;BME280;31382;50.200;8.674;2024-02-14T13:24:47;100717.38;;;13.48;64.36
45323;BME280;31382;50.200;8.674;2024-02-14T13:29:49;100708.28;;;13.49;64.44
45323;BME280;31382;50.200;8.674;2024-02-14T13:34:51;100706.88;;;13.53;64.27
45323;BME280;31382;50.200;8.674;2024-02-14T13:39:53;100711.22;;;13.54;64.25
45323;BME280;31382;50.200;8.674;2024-02-14T13:44:55;100722.44;;;13.51;64.51
45323;BME280;31382;50.200;8.674;2024-02-14T13:49:57;100698.47;;;13.48;64.56
45323;BME280;31382;50.200;8.674;2024-02-14T13:54:59;100713.09;;;13.54;64.47
45323;BME280;31382;50.200;8.674;2024-02-14T14:00:02;100707.69;;;13.54;64.71
45323;BME280;31382;50.200;8.674;2024-02-14T14:05:04;100702.94;;;13.56;64.86
45323;BME280;31382;50.200;8.674;2024-02-14T14:10:07;100698.56;;;13.69;64.81
45323;BME280;31382;50.200;8.674;2024-02-14T14:15:10;100691.50;;;13.68;64.97
45323;BME280;31382;50.200;8.674;2024-02-14T14:20:12;100689.16;;;13.51;65.39
45323;BME280;31382;50.200;8.674;2024-02-14T14:25:14;100710.22;;;13.40;65.99
45323;BME280;31382;50.200;8.674;2024-02-14T14:30:15;100709.03;;;13.43;65.80
45323;BME280;31382;50.200;8.674;2024-02-14T14:35:17;100704.78;;;13.25;66.42
45323;BME280;31382;50.200;8.674;2024-02-14T14:40:18;100696.88;;;13.39;66.25
45323;BME280;31382;50.200;8.674;2024-02-14T14:45:20;100695.69;;;13.41;66.38
45323;BME280;31382;50.200;8.674;2024-02-14T14:50:22;100704.72;;;13.34;66.79
45323;BME280;31382;50.200;8.674;2024-02-14T14:55:24;100696.63;;;13.34;66.89
45323;BME280;31382;50.200;8.674;2024-02-14T15:00:25;100700.13;;;13.19;67.28
45323;BME280;31382;50.200;8.674;2024-02-14T15:05:27;100694.13;;;13.09;67.67
45323;BME280;31382;50.200;8.674;2024-02-14T15:10:29;100705.88;;;13.01;68.14
45323;BME280;31382;50.200;8.674;2024-02-14T15:15:31;100703.19;;;13.01;68.40
45323;BME280;31382;50.200;8.674;2024-02-14T15:20:34;100698.44;;;13.03;68.15
45323;BME280;31382;50.200;8.674;2024-02-14T15:25:38;100705.13;;;13.07;68.47
45323;BME280;31382;50.200;8.674;2024-02-14T15:30:40;100698.22;;;13.05;68.37
45323;BME280;31382;50.200;8.674;2024-02-14T15:36:00;100697.22;;;13.06;68.56
45323;BME280;31382;50.200;8.674;2024-02-14T15:41:02;100696.56;;;13.04;68.81
45323;BME280;31382;50.200;8.674;2024-02-14T15:46:05;100692.56;;;13.00;69.13
45323;BME280;31382;50.200;8.674;2024-02-14T15:51:07;100693.94;;;12.96;69.35
45323;BME280;31382;50.200;8.674;2024-02-14T15:56:08;100683.50;;;12.93;69.51
45323;BME280;31382;50.200;8.674;2024-02-14T16:01:13;100697.72;;;12.86;69.83
45323;BME280;31382;50.200;8.674;2024-02-14T16:06:15;100676.50;;;12.83;70.04
45323;BME280;31382;50.200;8.674;2024-02-14T16:11:18;100688.88;;;12.78;70.33
45323;BME280;31382;50.200;8.674;2024-02-14T16:16:19;100692.50;;;12.70;70.73
45323;BME280;31382;50.200;8.674;2024-02-14T16:21:21;100687.19;;;12.77;70.49
45323;BME280;31382;50.200;8.674;2024-02-14T16:26:23;100679.19;;;12.68;70.66
45323;BME280;31382;50.200;8.674;2024-02-14T16:31:28;100688.53;;;12.58;70.84
45323;BME280;31382;50.200;8.674;2024-02-14T16:36:30;100691.94;;;12.52;71.60
45323;BME280;31382;50.200;8.674;2024-02-14T16:41:31;100696.31;;;12.53;71.55
45323;BME280;31382;50.200;8.674;2024-02-14T16:46:33;100693.31;;;12.47;71.92
45323;BME280;31382;50.200;8.674;2024-02-14T16:51:34;100698.94;;;12.38;72.30
45323;BME280;31382;50.200;8.674;2024-02-14T16:56:36;100702.75;;;12.28;72.45
45323;BME280;31382;50.200;8.674;2024-02-14T17:01:37;100713.03;;;12.25;72.73
45323;BME280;31382;50.200;8.674;2024-02-14T17:06:39;100718.72;;;12.30;72.67
45323;BME280;31382;50.200;8.674;2024-02-14T17:11:41;100711.81;;;12.27;73.19
45323;BME280;31382;50.200;8.674;2024-02-14T17:16:42;100716.06;;;12.22;73.51
45323;BME280;31382;50.200;8.674;2024-02-14T17:21:44;100718.75;;;12.22;73.71
45323;BME280;31382;50.200;8.674;2024-02-14T17:26:47;100723.16;;;12.23;73.64
45323;BME280;31382;50.200;8.674;2024-02-14T17:31:49;100728.88;;;12.20;73.87
45323;BME280;31382;50.200;8.674;2024-02-14T17:36:51;100722.50;;;12.21;74.22
45323;BME280;31382;50.200;8.674;2024-02-14T17:41:54;100715.84;;;12.32;73.90
45323;BME280;31382;50.200;8.674;2024-02-14T17:46:56;100723.66;;;12.26;73.96
45323;BME280;31382;50.200;8.674;2024-02-14T17:51:57;100720.94;;;12.26;74.32
45323;BME280;31382;50.200;8.674;2024-02-14T17:57:00;100735.81;;;12.22;74.32
45323;BME280;31382;50.200;8.674;2024-02-14T18:02:03;100733.22;;;12.29;74.45
45323;BME280;31382;50.200;8.674;2024-02-14T18:07:04;100730.22;;;12.24;74.72
45323;BME280;31382;50.200;8.674;2024-02-14T18:12:06;100720.28;;;12.24;74.77
45323;BME280;31382;50.200;8.674;2024-02-14T18:17:08;100735.25;;;12.27;74.66
45323;BME280;31382;50.200;8.674;2024-02-14T18:22:09;100733.22;;;12.29;74.86
45323;BME280;31382;50.200;8.674;2024-02-14T18:27:11;100739.59;;;12.36;74.53
45323;BME280;31382;50.200;8.674;2024-02-14T18:32:13;100734.31;;;12.43;74.79
45323;BME280;31382;50.200;8.674;2024-02-14T18:37:16;100734.66;;;12.40;74.89
45323;BME280;31382;50.200;8.674;2024-02-14T18:42:17;100733.09;;;12.45;74.79
45323;BME280;31382;50.200;8.674;2024-02-14T18:47:18;100736.63;;;12.46;75.01
45323;BME280;31382;50.200;8.674;2024-02-14T18:52:20;100732.59;;;12.50;74.82
45323;BME280;31382;50.200;8.674;2024-02-14T18:57:22;100736.78;;;12.53;74.94
45323;BME280;31382;50.200;8.674;2024-02-14T19:02:23;100732.38;;;12.52;75.13
45323;BME280;31382;50.200;8.674;2024-02-14T19:07:25;100736.28;;;12.49;75.32
45323;BME280;31382;50.200;8.674;2024-02-14T19:12:27;100721.59;;;12.52;75.15
45323;BME280;31382;50.200;8.674;2024-02-14T19:17:32;100712.84;;;12.49;75.24
45323;BME280;31382;50.200;8.674;2024-02-14T19:22:35;100717.59;;;12.47;75.55
45323;BME280;31382;50.200;8.674;2024-02-14T19:27:36;100723.53;;;12.43;75.48
45323;BME280;31382;50.200;8.674;2024-02-14T19:32:41;100710.22;;;12.41;75.63
45323;BME280;31382;50.200;8.674;2024-02-14T19:37:42;100707.34;;;12.43;75.67
45323;BME280;31382;50.200;8.674;2024-02-14T19:42:44;100704.81;;;12.41;76.45
45323;BME280;31382;50.200;8.674;2024-02-14T19:47:47;100703.44;;;12.45;75.89
45323;BME280;31382;50.200;8.674;2024-02-14T19:52:50;100715.44;;;12.43;76.38
45323;BME280;31382;50.200;8.674;2024-02-14T19:57:52;100706.16;;;12.45;76.27
45323;BME280;31382;50.200;8.674;2024-02-14T20:02:53;100718.25;;;12.49;76.61
45323;BME280;31382;50.200;8.674;2024-02-14T20:07:55;100718.25;;;12.49;76.37
45323;BME280;31382;50.200;8.674;2024-02-14T20:12:57;100718.06;;;12.51;76.73
45323;BME280;31382;50.200;8.674;2024-02-14T20:17:59;100731.56;;;12.51;76.75
45323;BME280;31382;50.200;8.674;2024-02-14T20:23:01;100730.78;;;12.42;77.20
45323;BME280;31382;50.200;8.674;2024-02-14T20:28:02;100732.56;;;12.27;77.90
45323;BME280;31382;50.200;8.674;2024-02-14T20:33:04;100732.03;;;12.32;77.50
45323;BME280;31382;50.200;8.674;2024-02-14T20:38:07;100724.41;;;12.35;77.41
45323;BME280;31382;50.200;8.674;2024-02-14T20:43:11;100727.00;;;12.28;77.53
45323;BME280;31382;50.200;8.674;2024-02-14T20:48:13;100726.78;;;12.30;77.83
45323;BME280;31382;50.200;8.674;2024-02-14T20:53:15;100735.81;;;12.22;78.49
45323;BME280;31382;50.200;8.674;2024-02-14T20:58:16;100735.09;;;12.20;78.37
45323;BME280;31382;50.200;8.674;2024-02-14T21:03:18;100728.38;;;12.24;78.49
45323;BME280;31382;50.200;8.674;2024-02-14T21:08:19;100739.28;;;12.31;78.30
45323;BME280;31382;50.200;8.674;2024-02-14T21:13:21;100736.91;;;12.28;78.24
45323;BME280;31382;50.200;8.674;2024-02-14T21:18:22;100745.31;;;12.33;78.31
45323;BME280;31382;50.200;8.674;2024-02-14T21:23:25;100756.44;;;12.30;78.44
45323;BME280;31382;50.200;8.674;2024-02-14T21:28:26;100746.66;;;12.37;78.13
45323;BME280;31382;50.200;8.674;2024-02-14T21:33:28;100750.84;;;12.40;78.28
45323;BME280;31382;50.200;8.674;2024-02-14T21:38:29;100746.81;;;12.36;78.62
45323;BME280;31382;50.200;8.674;2024-02-14T21:43:32;100739.09;;;12.33;78.85
45323;BME280;31382;50.200;8.674;2024-02-14T21:48:33;100744.97;;;12.36;78.61
45323;BME280;31382;50.200;8.674;2024-02-14T21:53:35;100749.16;;;12.39;78.82
45323;BME280;31382;50.200;8.674;2024-02-14T21:58:37;100752.63;;;12.47;78.22
45323;BME280;31382;50.200;8.674;2024-02-14T22:03:39;100754.84;;;12.44;78.89
45323;BME280;31382;50.200;8.674;2024-02-14T22:08:40;100753.31;;;12.49;78.31
45323;BME280;31382;50.200;8.674;2024-02-14T22:13:42;100751.47;;;12.50;78.62
45323;BME280;31382;50.200;8.674;2024-02-14T22:18:43;100749.59;;;12.50;78.87
45323;BME280;31382;50.200;8.674;2024-02-14T22:23:46;100748.81;;;12.65;78.22
45323;BME280;31382;50.200;8.674;2024-02-14T22:28:48;100752.25;;;12.59;78.38
45323;BME280;31382;50.200;8.674;2024-02-14T22:33:50;100750.19;;;12.61;78.42
45323;BME280;31382;50.200;8.674;2024-02-14T22:38:55;100746.88;;;12.74;77.93
45323;BME280;31382;50.200;8.674;2024-02-14T22:43:57;100742.69;;;12.71;78.09
45323;BME280;31382;50.200;8.674;2024-02-14T22:48:59;100741.03;;;12.70;77.74
45323;BME280;31382;50.200;8.674;2024-02-14T22:54:02;100744.25;;;12.65;78.21
45323;BME280;31382;50.200;8.674;2024-02-14T22:59:04;100745.63;;;12.61;78.39
45323;BME280;31382;50.200;8.674;2024-02-14T23:04:07;100735.72;;;12.62;78.38
45323;BME280;31382;50.200;8.674;2024-02-14T23:09:09;100740.06;;;12.63;78.32
45323;BME280;31382;50.200;8.674;2024-02-14T23:14:11;100733.00;;;12.62;78.48
45323;BME280;31382;50.200;8.674;2024-02-14T23:19:19;100732.03;;;12.55;78.79
45323;BME280;31382;50.200;8.674;2024-02-14T23:24:21;100734.38;;;12.58;78.75
45323;BME280;31382;50.200;8.674;2024-02-14T23:29:22;100733.69;;;12.56;78.98
45323;BME280;31382;50.200;8.674;2024-02-14T23:34:24;100713.16;;;12.55;78.88
45323;BME280;31382;50.200;8.674;2024-02-14T23:39:26;100720.22;;;12.56;79.00
45323;BME280;31382;50.200;8.674;2024-02-14T23:44:28;100716.69;;;12.55;79.01
45323;BME280;31382;50.200;8.674;2024-02-14T23:49:29;100724.63;;;12.57;79.07
45323;BME280;31382;50.200;8.674;2024-02-14T23:54:31;100737.91;;;12.58;79.17
45323;BME280;31382;50.200;8.674;2024-02-14T23:59:33;100733.00;;;12.62;78.70
